Pagrindinis puslapis
METAR-TAF:

METAR-TAF

Oro uostai :

Niamėjus, Nigeris

platuma: 13-29N, ilguma: 002-10E, Aukštis: 223 m

Dabartinis oras

Ataskaita buvo paskelbta 1 valandą ir 19 minutes, ne 22:00 UTC
Vėjas 6 kt iš Šiaurės Rytų
Temperatūra 28°C
Drėgmė 11%
Slėgis 1013 hPa
Matomumas: 3500 m
dulkės

METAR: DRRN 212200Z 05006KT 3500 DU NSC 28/M05 Q1013 NOSIG

Laikas: 00:19 (23:19 UTC)

Prognozė

Ataskaita buvo paskelbta 6 valandos ir 19 minutes, ne 17:00 UTC
Prognozė galioja nuo 21 metu 18 UTC su 22 metu 24 UTC
Vėjas 8 kt iš Rytų
Matomumas: 4000 m
dulkės
Tikimybė 40%
nuo 21 metu 18 UTC su 21 metu 21 UTC
Matomumas: 2800 m
Tikimybė 40%
nuo 22 metu 06 UTC su 22 metu 08 UTC
Matomumas: 2800 m
Tikimybė 40%
nuo 22 metu 08 UTC su 22 metu 14 UTC
Vėjas 20 kt iš Rytų
Matomumas: 1800 m
Dulkes pustymas

TAF: DRRN 211700Z 2118/2224 08008KT 4000 DU NSC PROB40 2118/2121 2800 PROB40 2206/2208 2800 PROB40 2208/2214 10020KT 1800 BLDU

Orai ataskaitas ir orų prognozės (METAR, TAF).

turimą stotys yra geltonos ir raudonos taškus žemėlapyje.

Perkelti pele per norėdami pamatyti stoties vardą.

Tada spustelėkite, norėdami matyti oro stebėjimo ir prognozės.

Norėdami pakeisti žemėlapį: spustelėkite ant žalios mygtukų su juodo kryžiaus žemyn,; žalią mygtuką su brūkšneliu, jei norite nutolinti; arba žalių rodyklių gretimoms žemėlapius.


METAR-TAF: